sensor_id;sensor_type;location;lat;lon;timestamp;P1;durP1;ratioP1;P2;durP2;ratioP2
80313;SDS011;69628;47.516;18.828;2023-10-31T00:00:52;11.45;;;3.33;;
80313;SDS011;69628;47.516;18.828;2023-10-31T00:01:52;7.35;;;3.53;;
80313;SDS011;69628;47.516;18.828;2023-10-31T00:02:53;7.75;;;3.20;;
80313;SDS011;69628;47.516;18.828;2023-10-31T00:03:53;7.00;;;3.22;;
80313;SDS011;69628;47.516;18.828;2023-10-31T00:04:53;8.73;;;3.85;;
80313;SDS011;69628;47.516;18.828;2023-10-31T00:05:54;7.30;;;3.47;;
80313;SDS011;69628;47.516;18.828;2023-10-31T00:06:54;8.30;;;3.15;;
80313;SDS011;69628;47.516;18.828;2023-10-31T00:07:54;9.55;;;3.92;;
80313;SDS011;69628;47.516;18.828;2023-10-31T00:08:55;6.25;;;3.65;;
80313;SDS011;69628;47.516;18.828;2023-10-31T00:09:56;14.82;;;4.10;;
80313;SDS011;69628;47.516;18.828;2023-10-31T00:10:56;10.48;;;4.10;;
80313;SDS011;69628;47.516;18.828;2023-10-31T00:11:57;5.85;;;3.25;;
80313;SDS011;69628;47.516;18.828;2023-10-31T00:12:58;9.07;;;3.47;;
80313;SDS011;69628;47.516;18.828;2023-10-31T00:13:58;7.90;;;3.47;;
80313;SDS011;69628;47.516;18.828;2023-10-31T00:14:59;10.35;;;3.50;;
80313;SDS011;69628;47.516;18.828;2023-10-31T00:15:59;7.22;;;3.45;;
80313;SDS011;69628;47.516;18.828;2023-10-31T00:17:00;14.80;;;3.63;;
80313;SDS011;69628;47.516;18.828;2023-10-31T00:18:00;7.43;;;3.38;;
80313;SDS011;69628;47.516;18.828;2023-10-31T00:19:00;14.45;;;4.00;;
80313;SDS011;69628;47.516;18.828;2023-10-31T00:20:01;5.78;;;3.08;;
80313;SDS011;69628;47.516;18.828;2023-10-31T00:21:01;10.60;;;3.75;;
80313;SDS011;69628;47.516;18.828;2023-10-31T00:22:02;9.15;;;3.47;;
80313;SDS011;69628;47.516;18.828;2023-10-31T00:23:02;6.70;;;3.17;;
80313;SDS011;69628;47.516;18.828;2023-10-31T00:24:03;19.17;;;3.33;;
80313;SDS011;69628;47.516;18.828;2023-10-31T00:25:04;7.97;;;3.92;;
80313;SDS011;69628;47.516;18.828;2023-10-31T00:26:04;7.25;;;3.70;;
80313;SDS011;69628;47.516;18.828;2023-10-31T00:27:05;6.47;;;3.15;;
80313;SDS011;69628;47.516;18.828;2023-10-31T00:28:05;10.25;;;4.00;;
80313;SDS011;69628;47.516;18.828;2023-10-31T00:29:05;5.93;;;3.15;;
80313;SDS011;69628;47.516;18.828;2023-10-31T00:30:06;9.18;;;3.95;;
80313;SDS011;69628;47.516;18.828;2023-10-31T00:31:07;7.25;;;3.45;;
80313;SDS011;69628;47.516;18.828;2023-10-31T00:32:08;8.07;;;3.60;;
80313;SDS011;69628;47.516;18.828;2023-10-31T00:33:08;7.70;;;3.78;;
80313;SDS011;69628;47.516;18.828;2023-10-31T00:34:08;13.25;;;3.85;;
80313;SDS011;69628;47.516;18.828;2023-10-31T00:35:10;9.68;;;3.30;;
80313;SDS011;69628;47.516;18.828;2023-10-31T00:36:12;12.70;;;3.83;;
80313;SDS011;69628;47.516;18.828;2023-10-31T00:37:13;7.10;;;3.83;;
80313;SDS011;69628;47.516;18.828;2023-10-31T00:38:13;7.20;;;4.05;;
80313;SDS011;69628;47.516;18.828;2023-10-31T00:39:14;6.60;;;3.25;;
80313;SDS011;69628;47.516;18.828;2023-10-31T00:40:14;8.05;;;4.22;;
80313;SDS011;69628;47.516;18.828;2023-10-31T00:41:16;4.80;;;3.15;;
80313;SDS011;69628;47.516;18.828;2023-10-31T00:42:16;7.78;;;3.75;;
80313;SDS011;69628;47.516;18.828;2023-10-31T00:43:17;9.73;;;3.90;;
80313;SDS011;69628;47.516;18.828;2023-10-31T00:44:17;7.90;;;3.58;;
80313;SDS011;69628;47.516;18.828;2023-10-31T00:45:18;10.00;;;2.90;;
80313;SDS011;69628;47.516;18.828;2023-10-31T00:46:18;6.50;;;3.65;;
80313;SDS011;69628;47.516;18.828;2023-10-31T00:47:18;11.60;;;4.00;;
80313;SDS011;69628;47.516;18.828;2023-10-31T00:48:19;6.22;;;3.95;;
80313;SDS011;69628;47.516;18.828;2023-10-31T00:49:20;10.68;;;3.75;;
80313;SDS011;69628;47.516;18.828;2023-10-31T00:50:20;11.02;;;4.65;;
80313;SDS011;69628;47.516;18.828;2023-10-31T00:51:20;10.32;;;3.78;;
80313;SDS011;69628;47.516;18.828;2023-10-31T00:52:21;12.35;;;3.50;;
80313;SDS011;69628;47.516;18.828;2023-10-31T00:53:22;6.38;;;3.03;;
80313;SDS011;69628;47.516;18.828;2023-10-31T00:54:22;6.40;;;3.35;;
80313;SDS011;69628;47.516;18.828;2023-10-31T00:55:22;6.05;;;3.60;;
80313;SDS011;69628;47.516;18.828;2023-10-31T00:56:23;12.40;;;3.83;;
80313;SDS011;69628;47.516;18.828;2023-10-31T00:57:23;6.28;;;3.08;;
80313;SDS011;69628;47.516;18.828;2023-10-31T00:58:24;6.47;;;3.15;;
80313;SDS011;69628;47.516;18.828;2023-10-31T00:59:24;9.75;;;3.88;;
80313;SDS011;69628;47.516;18.828;2023-10-31T01:00:24;6.18;;;3.55;;
80313;SDS011;69628;47.516;18.828;2023-10-31T01:01:25;6.45;;;3.53;;
80313;SDS011;69628;47.516;18.828;2023-10-31T01:02:25;7.32;;;3.30;;
80313;SDS011;69628;47.516;18.828;2023-10-31T01:03:25;8.05;;;3.55;;
80313;SDS011;69628;47.516;18.828;2023-10-31T01:04:26;8.13;;;3.58;;
80313;SDS011;69628;47.516;18.828;2023-10-31T01:05:26;8.13;;;3.90;;
80313;SDS011;69628;47.516;18.828;2023-10-31T01:06:28;6.03;;;3.53;;
80313;SDS011;69628;47.516;18.828;2023-10-31T01:07:29;6.15;;;3.35;;
80313;SDS011;69628;47.516;18.828;2023-10-31T01:08:29;7.55;;;3.17;;
80313;SDS011;69628;47.516;18.828;2023-10-31T01:09:30;8.18;;;3.65;;
80313;SDS011;69628;47.516;18.828;2023-10-31T01:10:30;7.80;;;3.63;;
80313;SDS011;69628;47.516;18.828;2023-10-31T01:11:30;7.43;;;3.60;;
80313;SDS011;69628;47.516;18.828;2023-10-31T01:12:31;11.82;;;3.50;;
80313;SDS011;69628;47.516;18.828;2023-10-31T01:13:32;7.88;;;3.75;;
80313;SDS011;69628;47.516;18.828;2023-10-31T01:14:33;5.53;;;3.00;;
80313;SDS011;69628;47.516;18.828;2023-10-31T01:15:33;5.65;;;3.10;;
80313;SDS011;69628;47.516;18.828;2023-10-31T01:16:33;6.53;;;3.83;;
80313;SDS011;69628;47.516;18.828;2023-10-31T01:17:34;8.48;;;3.83;;
80313;SDS011;69628;47.516;18.828;2023-10-31T01:18:34;10.05;;;3.67;;
80313;SDS011;69628;47.516;18.828;2023-10-31T01:19:35;6.43;;;3.42;;
80313;SDS011;69628;47.516;18.828;2023-10-31T01:20:35;12.50;;;3.15;;
80313;SDS011;69628;47.516;18.828;2023-10-31T01:21:36;5.50;;;3.05;;
80313;SDS011;69628;47.516;18.828;2023-10-31T01:22:36;7.75;;;4.32;;
80313;SDS011;69628;47.516;18.828;2023-10-31T01:23:36;10.60;;;3.90;;
80313;SDS011;69628;47.516;18.828;2023-10-31T01:24:37;8.65;;;4.03;;
80313;SDS011;69628;47.516;18.828;2023-10-31T01:25:37;8.23;;;3.60;;
80313;SDS011;69628;47.516;18.828;2023-10-31T01:26:38;8.50;;;3.00;;
80313;SDS011;69628;47.516;18.828;2023-10-31T01:27:38;7.07;;;3.25;;
80313;SDS011;69628;47.516;18.828;2023-10-31T01:28:38;5.95;;;2.90;;
80313;SDS011;69628;47.516;18.828;2023-10-31T01:29:39;7.47;;;3.28;;
80313;SDS011;69628;47.516;18.828;2023-10-31T01:30:39;10.07;;;3.20;;
80313;SDS011;69628;47.516;18.828;2023-10-31T01:31:42;12.30;;;3.75;;
80313;SDS011;69628;47.516;18.828;2023-10-31T01:32:42;5.18;;;3.25;;
80313;SDS011;69628;47.516;18.828;2023-10-31T01:33:43;9.80;;;3.80;;
80313;SDS011;69628;47.516;18.828;2023-10-31T01:34:43;8.82;;;3.80;;
80313;SDS011;69628;47.516;18.828;2023-10-31T01:35:44;7.50;;;3.30;;
80313;SDS011;69628;47.516;18.828;2023-10-31T01:36:44;6.93;;;3.63;;
80313;SDS011;69628;47.516;18.828;2023-10-31T01:37:44;6.60;;;3.08;;
80313;SDS011;69628;47.516;18.828;2023-10-31T01:38:45;4.18;;;2.95;;
80313;SDS011;69628;47.516;18.828;2023-10-31T01:39:46;8.70;;;3.72;;
80313;SDS011;69628;47.516;18.828;2023-10-31T01:40:50;6.10;;;3.00;;
80313;SDS011;69628;47.516;18.828;2023-10-31T01:41:50;8.02;;;3.80;;
80313;SDS011;69628;47.516;18.828;2023-10-31T01:42:52;5.35;;;3.35;;
80313;SDS011;69628;47.516;18.828;2023-10-31T01:43:53;6.80;;;3.67;;
80313;SDS011;69628;47.516;18.828;2023-10-31T01:44:53;6.00;;;3.45;;
80313;SDS011;69628;47.516;18.828;2023-10-31T01:45:53;10.38;;;3.65;;
80313;SDS011;69628;47.516;18.828;2023-10-31T01:46:54;8.30;;;3.20;;
80313;SDS011;69628;47.516;18.828;2023-10-31T01:47:54;6.03;;;3.63;;
80313;SDS011;69628;47.516;18.828;2023-10-31T01:48:55;9.98;;;4.28;;
80313;SDS011;69628;47.516;18.828;2023-10-31T01:49:55;5.35;;;3.10;;
80313;SDS011;69628;47.516;18.828;2023-10-31T01:50:56;5.07;;;3.05;;
80313;SDS011;69628;47.516;18.828;2023-10-31T01:51:57;17.92;;;3.63;;
80313;SDS011;69628;47.516;18.828;2023-10-31T01:52:57;5.28;;;3.05;;
80313;SDS011;69628;47.516;18.828;2023-10-31T01:53:58;4.07;;;2.70;;
80313;SDS011;69628;47.516;18.828;2023-10-31T01:54:58;6.25;;;3.63;;
80313;SDS011;69628;47.516;18.828;2023-10-31T01:56:00;6.65;;;3.85;;
80313;SDS011;69628;47.516;18.828;2023-10-31T01:57:03;9.27;;;3.75;;
80313;SDS011;69628;47.516;18.828;2023-10-31T01:58:04;9.05;;;3.28;;
80313;SDS011;69628;47.516;18.828;2023-10-31T01:59:05;6.65;;;3.15;;
80313;SDS011;69628;47.516;18.828;2023-10-31T02:00:06;5.35;;;3.35;;
80313;SDS011;69628;47.516;18.828;2023-10-31T02:01:07;4.32;;;3.08;;
80313;SDS011;69628;47.516;18.828;2023-10-31T02:02:07;6.00;;;2.95;;
80313;SDS011;69628;47.516;18.828;2023-10-31T02:03:08;10.30;;;3.38;;
80313;SDS011;69628;47.516;18.828;2023-10-31T02:04:09;7.63;;;3.70;;
80313;SDS011;69628;47.516;18.828;2023-10-31T02:05:09;6.05;;;3.25;;
80313;SDS011;69628;47.516;18.828;2023-10-31T02:06:10;9.68;;;3.75;;
80313;SDS011;69628;47.516;18.828;2023-10-31T02:07:10;8.18;;;3.33;;
80313;SDS011;69628;47.516;18.828;2023-10-31T02:08:11;7.82;;;3.20;;
80313;SDS011;69628;47.516;18.828;2023-10-31T02:09:11;10.93;;;3.38;;
80313;SDS011;69628;47.516;18.828;2023-10-31T02:10:12;8.38;;;3.60;;
80313;SDS011;69628;47.516;18.828;2023-10-31T02:11:12;9.38;;;3.58;;
80313;SDS011;69628;47.516;18.828;2023-10-31T02:12:30;9.98;;;3.58;;
80313;SDS011;69628;47.516;18.828;2023-10-31T02:13:39;16.50;;;3.15;;
80313;SDS011;69628;47.516;18.828;2023-10-31T02:14:39;8.40;;;3.33;;
80313;SDS011;69628;47.516;18.828;2023-10-31T02:15:40;11.68;;;3.10;;
80313;SDS011;69628;47.516;18.828;2023-10-31T02:16:40;4.55;;;2.70;;
80313;SDS011;69628;47.516;18.828;2023-10-31T02:17:41;9.55;;;4.20;;
80313;SDS011;69628;47.516;18.828;2023-10-31T02:18:41;10.60;;;3.83;;
80313;SDS011;69628;47.516;18.828;2023-10-31T02:19:42;6.60;;;3.22;;
80313;SDS011;69628;47.516;18.828;2023-10-31T02:20:43;4.93;;;2.85;;
80313;SDS011;69628;47.516;18.828;2023-10-31T02:21:43;12.40;;;3.80;;
80313;SDS011;69628;47.516;18.828;2023-10-31T02:22:43;9.00;;;3.33;;
80313;SDS011;69628;47.516;18.828;2023-10-31T02:23:54;8.32;;;3.45;;
80313;SDS011;69628;47.516;18.828;2023-10-31T02:24:59;12.45;;;3.78;;
80313;SDS011;69628;47.516;18.828;2023-10-31T02:25:59;6.43;;;2.97;;
80313;SDS011;69628;47.516;18.828;2023-10-31T02:26:59;5.70;;;2.92;;
80313;SDS011;69628;47.516;18.828;2023-10-31T02:28:00;7.47;;;3.63;;
80313;SDS011;69628;47.516;18.828;2023-10-31T02:29:00;7.68;;;2.83;;
80313;SDS011;69628;47.516;18.828;2023-10-31T02:30:01;4.95;;;2.38;;
80313;SDS011;69628;47.516;18.828;2023-10-31T02:31:01;6.43;;;2.78;;
80313;SDS011;69628;47.516;18.828;2023-10-31T02:32:02;5.40;;;3.25;;
80313;SDS011;69628;47.516;18.828;2023-10-31T02:33:02;9.50;;;3.25;;
80313;SDS011;69628;47.516;18.828;2023-10-31T02:34:03;6.18;;;3.30;;
80313;SDS011;69628;47.516;18.828;2023-10-31T02:35:03;6.40;;;2.83;;
80313;SDS011;69628;47.516;18.828;2023-10-31T02:36:04;5.18;;;3.03;;
80313;SDS011;69628;47.516;18.828;2023-10-31T02:37:14;5.97;;;3.00;;
80313;SDS011;69628;47.516;18.828;2023-10-31T02:40:04;7.55;;;3.53;;
80313;SDS011;69628;47.516;18.828;2023-10-31T02:41:10;4.88;;;2.83;;
80313;SDS011;69628;47.516;18.828;2023-10-31T02:42:11;5.57;;;2.90;;
80313;SDS011;69628;47.516;18.828;2023-10-31T02:43:11;4.82;;;2.58;;
80313;SDS011;69628;47.516;18.828;2023-10-31T02:44:11;6.05;;;2.50;;
80313;SDS011;69628;47.516;18.828;2023-10-31T02:45:14;5.38;;;2.75;;
80313;SDS011;69628;47.516;18.828;2023-10-31T02:46:14;9.45;;;3.47;;
80313;SDS011;69628;47.516;18.828;2023-10-31T02:47:15;9.43;;;3.25;;
80313;SDS011;69628;47.516;18.828;2023-10-31T02:48:16;7.65;;;3.60;;
80313;SDS011;69628;47.516;18.828;2023-10-31T02:49:16;10.35;;;3.70;;
80313;SDS011;69628;47.516;18.828;2023-10-31T02:50:17;7.03;;;3.50;;
80313;SDS011;69628;47.516;18.828;2023-10-31T02:51:17;7.00;;;3.50;;
80313;SDS011;69628;47.516;18.828;2023-10-31T02:52:17;6.07;;;3.05;;
80313;SDS011;69628;47.516;18.828;2023-10-31T02:53:18;10.60;;;3.47;;
80313;SDS011;69628;47.516;18.828;2023-10-31T02:54:19;6.35;;;2.88;;
80313;SDS011;69628;47.516;18.828;2023-10-31T02:55:19;8.55;;;3.33;;
80313;SDS011;69628;47.516;18.828;2023-10-31T02:56:19;6.43;;;3.25;;
80313;SDS011;69628;47.516;18.828;2023-10-31T02:57:20;7.97;;;3.70;;
80313;SDS011;69628;47.516;18.828;2023-10-31T02:58:20;8.43;;;3.65;;
80313;SDS011;69628;47.516;18.828;2023-10-31T02:59:20;8.45;;;3.40;;
80313;SDS011;69628;47.516;18.828;2023-10-31T03:00:21;6.82;;;3.65;;
80313;SDS011;69628;47.516;18.828;2023-10-31T03:01:21;7.00;;;3.47;;
80313;SDS011;69628;47.516;18.828;2023-10-31T03:02:22;5.97;;;2.78;;
80313;SDS011;69628;47.516;18.828;2023-10-31T03:03:22;5.65;;;2.97;;
80313;SDS011;69628;47.516;18.828;2023-10-31T03:04:23;5.63;;;3.13;;
80313;SDS011;69628;47.516;18.828;2023-10-31T03:05:23;14.38;;;3.53;;
80313;SDS011;69628;47.516;18.828;2023-10-31T03:06:23;9.02;;;3.30;;
80313;SDS011;69628;47.516;18.828;2023-10-31T03:07:24;10.60;;;3.75;;
80313;SDS011;69628;47.516;18.828;2023-10-31T03:08:24;9.25;;;3.35;;
80313;SDS011;69628;47.516;18.828;2023-10-31T03:09:25;8.02;;;3.10;;
80313;SDS011;69628;47.516;18.828;2023-10-31T03:10:26;6.03;;;3.15;;
80313;SDS011;69628;47.516;18.828;2023-10-31T03:11:26;5.18;;;3.05;;
80313;SDS011;69628;47.516;18.828;2023-10-31T03:12:27;5.85;;;2.70;;
80313;SDS011;69628;47.516;18.828;2023-10-31T03:13:28;13.07;;;3.95;;
80313;SDS011;69628;47.516;18.828;2023-10-31T03:14:28;9.95;;;3.17;;
80313;SDS011;69628;47.516;18.828;2023-10-31T03:15:29;7.60;;;3.45;;
80313;SDS011;69628;47.516;18.828;2023-10-31T03:16:29;8.05;;;3.20;;
80313;SDS011;69628;47.516;18.828;2023-10-31T03:17:30;7.38;;;2.88;;
80313;SDS011;69628;47.516;18.828;2023-10-31T03:18:30;7.70;;;2.90;;
80313;SDS011;69628;47.516;18.828;2023-10-31T03:19:30;8.73;;;2.92;;
80313;SDS011;69628;47.516;18.828;2023-10-31T03:20:31;4.47;;;2.53;;
80313;SDS011;69628;47.516;18.828;2023-10-31T03:21:31;5.05;;;2.72;;
80313;SDS011;69628;47.516;18.828;2023-10-31T03:22:31;5.38;;;2.60;;
80313;SDS011;69628;47.516;18.828;2023-10-31T03:23:32;7.18;;;3.35;;
80313;SDS011;69628;47.516;18.828;2023-10-31T03:24:33;7.13;;;3.58;;
80313;SDS011;69628;47.516;18.828;2023-10-31T03:25:33;17.40;;;3.20;;
80313;SDS011;69628;47.516;18.828;2023-10-31T03:26:33;10.13;;;3.45;;
80313;SDS011;69628;47.516;18.828;2023-10-31T03:27:34;13.07;;;3.70;;
80313;SDS011;69628;47.516;18.828;2023-10-31T03:28:34;10.77;;;3.80;;
80313;SDS011;69628;47.516;18.828;2023-10-31T03:29:35;9.02;;;4.32;;
80313;SDS011;69628;47.516;18.828;2023-10-31T03:30:35;7.25;;;3.67;;
80313;SDS011;69628;47.516;18.828;2023-10-31T03:31:35;6.47;;;3.65;;
80313;SDS011;69628;47.516;18.828;2023-10-31T03:32:36;14.60;;;4.93;;
80313;SDS011;69628;47.516;18.828;2023-10-31T03:33:36;8.88;;;3.95;;
80313;SDS011;69628;47.516;18.828;2023-10-31T03:34:37;14.48;;;6.57;;
80313;SDS011;69628;47.516;18.828;2023-10-31T03:35:38;14.05;;;4.13;;
80313;SDS011;69628;47.516;18.828;2023-10-31T03:36:38;13.90;;;3.55;;
80313;SDS011;69628;47.516;18.828;2023-10-31T03:37:38;5.85;;;3.10;;
80313;SDS011;69628;47.516;18.828;2023-10-31T03:38:41;6.07;;;3.45;;
80313;SDS011;69628;47.516;18.828;2023-10-31T03:39:41;8.05;;;3.60;;
80313;SDS011;69628;47.516;18.828;2023-10-31T03:40:42;6.18;;;3.05;;
80313;SDS011;69628;47.516;18.828;2023-10-31T03:41:43;11.13;;;3.33;;
80313;SDS011;69628;47.516;18.828;2023-10-31T03:42:43;8.65;;;3.55;;
80313;SDS011;69628;47.516;18.828;2023-10-31T03:43:43;7.03;;;3.17;;
80313;SDS011;69628;47.516;18.828;2023-10-31T03:44:44;5.30;;;2.17;;
80313;SDS011;69628;47.516;18.828;2023-10-31T03:45:45;10.90;;;2.75;;
80313;SDS011;69628;47.516;18.828;2023-10-31T03:46:47;4.50;;;2.35;;
80313;SDS011;69628;47.516;18.828;2023-10-31T03:47:48;5.55;;;2.75;;
80313;SDS011;69628;47.516;18.828;2023-10-31T03:48:48;6.50;;;3.33;;
80313;SDS011;69628;47.516;18.828;2023-10-31T03:49:48;6.28;;;2.72;;
80313;SDS011;69628;47.516;18.828;2023-10-31T03:50:49;8.30;;;3.10;;
80313;SDS011;69628;47.516;18.828;2023-10-31T03:51:50;6.60;;;2.88;;
80313;SDS011;69628;47.516;18.828;2023-10-31T03:52:50;5.68;;;3.10;;
80313;SDS011;69628;47.516;18.828;2023-10-31T03:53:51;5.53;;;2.80;;
80313;SDS011;69628;47.516;18.828;2023-10-31T03:54:51;7.00;;;2.90;;
80313;SDS011;69628;47.516;18.828;2023-10-31T03:55:52;5.20;;;2.58;;
80313;SDS011;69628;47.516;18.828;2023-10-31T03:56:52;3.03;;;2.13;;
80313;SDS011;69628;47.516;18.828;2023-10-31T03:57:52;7.65;;;2.45;;
80313;SDS011;69628;47.516;18.828;2023-10-31T03:58:53;5.57;;;2.70;;
80313;SDS011;69628;47.516;18.828;2023-10-31T03:59:53;4.25;;;2.85;;
80313;SDS011;69628;47.516;18.828;2023-10-31T04:00:53;4.25;;;2.60;;
80313;SDS011;69628;47.516;18.828;2023-10-31T04:01:54;5.15;;;2.60;;
80313;SDS011;69628;47.516;18.828;2023-10-31T04:02:54;4.20;;;2.38;;
80313;SDS011;69628;47.516;18.828;2023-10-31T04:03:55;11.23;;;3.53;;
80313;SDS011;69628;47.516;18.828;2023-10-31T04:04:55;9.73;;;2.80;;
80313;SDS011;69628;47.516;18.828;2023-10-31T04:05:56;14.95;;;3.35;;
80313;SDS011;69628;47.516;18.828;2023-10-31T04:06:56;7.28;;;2.95;;
80313;SDS011;69628;47.516;18.828;2023-10-31T04:07:56;8.50;;;3.40;;
80313;SDS011;69628;47.516;18.828;2023-10-31T04:08:57;10.68;;;2.90;;
80313;SDS011;69628;47.516;18.828;2023-10-31T04:09:57;5.35;;;2.63;;
80313;SDS011;69628;47.516;18.828;2023-10-31T04:10:57;4.15;;;2.30;;
80313;SDS011;69628;47.516;18.828;2023-10-31T04:11:58;6.68;;;2.83;;
80313;SDS011;69628;47.516;18.828;2023-10-31T04:12:58;4.60;;;2.25;;
80313;SDS011;69628;47.516;18.828;2023-10-31T04:13:59;3.92;;;2.58;;
80313;SDS011;69628;47.516;18.828;2023-10-31T04:14:59;4.38;;;2.42;;
80313;SDS011;69628;47.516;18.828;2023-10-31T04:15:59;5.88;;;2.78;;
80313;SDS011;69628;47.516;18.828;2023-10-31T04:17:00;3.38;;;2.15;;
80313;SDS011;69628;47.516;18.828;2023-10-31T04:18:00;7.28;;;2.13;;
80313;SDS011;69628;47.516;18.828;2023-10-31T04:19:01;3.45;;;2.10;;
80313;SDS011;69628;47.516;18.828;2023-10-31T04:20:01;8.05;;;2.20;;
80313;SDS011;69628;47.516;18.828;2023-10-31T04:21:03;4.18;;;1.95;;
80313;SDS011;69628;47.516;18.828;2023-10-31T04:22:03;6.20;;;2.58;;
80313;SDS011;69628;47.516;18.828;2023-10-31T04:23:04;6.80;;;2.70;;
80313;SDS011;69628;47.516;18.828;2023-10-31T04:24:05;3.33;;;2.20;;
80313;SDS011;69628;47.516;18.828;2023-10-31T04:25:06;3.15;;;2.10;;
80313;SDS011;69628;47.516;18.828;2023-10-31T04:26:06;7.40;;;2.70;;
80313;SDS011;69628;47.516;18.828;2023-10-31T04:27:07;8.23;;;2.85;;
80313;SDS011;69628;47.516;18.828;2023-10-31T04:28:07;6.70;;;2.55;;
80313;SDS011;69628;47.516;18.828;2023-10-31T04:29:08;3.60;;;2.33;;
80313;SDS011;69628;47.516;18.828;2023-10-31T04:30:08;7.95;;;2.95;;
80313;SDS011;69628;47.516;18.828;2023-10-31T04:31:09;4.60;;;2.75;;
80313;SDS011;69628;47.516;18.828;2023-10-31T04:32:09;3.55;;;2.22;;
80313;SDS011;69628;47.516;18.828;2023-10-31T04:33:10;4.63;;;2.50;;
80313;SDS011;69628;47.516;18.828;2023-10-31T04:34:10;10.43;;;3.33;;
80313;SDS011;69628;47.516;18.828;2023-10-31T04:35:11;4.40;;;2.78;;
80313;SDS011;69628;47.516;18.828;2023-10-31T04:36:11;5.50;;;2.25;;
80313;SDS011;69628;47.516;18.828;2023-10-31T04:37:11;5.60;;;2.80;;
80313;SDS011;69628;47.516;18.828;2023-10-31T04:38:12;8.88;;;2.70;;
80313;SDS011;69628;47.516;18.828;2023-10-31T04:39:12;5.03;;;2.80;;
80313;SDS011;69628;47.516;18.828;2023-10-31T04:40:12;5.90;;;2.08;;
80313;SDS011;69628;47.516;18.828;2023-10-31T04:41:13;11.27;;;2.83;;
80313;SDS011;69628;47.516;18.828;2023-10-31T04:42:13;4.78;;;2.40;;
80313;SDS011;69628;47.516;18.828;2023-10-31T04:43:14;4.50;;;2.67;;
80313;SDS011;69628;47.516;18.828;2023-10-31T04:44:14;6.07;;;2.42;;
80313;SDS011;69628;47.516;18.828;2023-10-31T04:45:14;10.20;;;3.10;;
80313;SDS011;69628;47.516;18.828;2023-10-31T04:46:15;8.15;;;2.63;;
80313;SDS011;69628;47.516;18.828;2023-10-31T04:47:16;6.82;;;2.75;;
80313;SDS011;69628;47.516;18.828;2023-10-31T04:48:16;5.68;;;2.70;;
80313;SDS011;69628;47.516;18.828;2023-10-31T04:49:17;5.07;;;2.70;;
80313;SDS011;69628;47.516;18.828;2023-10-31T04:50:17;4.15;;;2.28;;
80313;SDS011;69628;47.516;18.828;2023-10-31T04:51:18;3.58;;;2.35;;
80313;SDS011;69628;47.516;18.828;2023-10-31T04:52:18;6.47;;;2.67;;
80313;SDS011;69628;47.516;18.828;2023-10-31T04:53:20;4.22;;;2.33;;
80313;SDS011;69628;47.516;18.828;2023-10-31T04:54:20;11.45;;;2.63;;
80313;SDS011;69628;47.516;18.828;2023-10-31T04:55:20;6.35;;;2.70;;
80313;SDS011;69628;47.516;18.828;2023-10-31T04:56:21;6.18;;;2.50;;
80313;SDS011;69628;47.516;18.828;2023-10-31T04:57:21;5.97;;;2.45;;
80313;SDS011;69628;47.516;18.828;2023-10-31T04:58:22;17.33;;;3.53;;
80313;SDS011;69628;47.516;18.828;2023-10-31T04:59:22;13.02;;;3.25;;
80313;SDS011;69628;47.516;18.828;2023-10-31T05:00:23;3.30;;;2.15;;
80313;SDS011;69628;47.516;18.828;2023-10-31T05:01:23;4.57;;;2.20;;
80313;SDS011;69628;47.516;18.828;2023-10-31T05:02:24;3.50;;;1.90;;
80313;SDS011;69628;47.516;18.828;2023-10-31T05:03:24;6.55;;;2.47;;
80313;SDS011;69628;47.516;18.828;2023-10-31T05:04:25;5.05;;;2.35;;
80313;SDS011;69628;47.516;18.828;2023-10-31T05:05:26;4.22;;;2.10;;
80313;SDS011;69628;47.516;18.828;2023-10-31T05:06:26;4.25;;;2.13;;
80313;SDS011;69628;47.516;18.828;2023-10-31T05:07:27;3.90;;;2.38;;
80313;SDS011;69628;47.516;18.828;2023-10-31T05:08:27;8.82;;;2.53;;
80313;SDS011;69628;47.516;18.828;2023-10-31T05:09:27;3.78;;;1.95;;
80313;SDS011;69628;47.516;18.828;2023-10-31T05:10:28;4.10;;;2.05;;
80313;SDS011;69628;47.516;18.828;2023-10-31T05:11:28;3.63;;;2.13;;
80313;SDS011;69628;47.516;18.828;2023-10-31T05:12:29;8.00;;;1.95;;
80313;SDS011;69628;47.516;18.828;2023-10-31T05:13:29;3.90;;;1.95;;
80313;SDS011;69628;47.516;18.828;2023-10-31T05:14:29;3.30;;;1.85;;
80313;SDS011;69628;47.516;18.828;2023-10-31T05:15:30;3.92;;;2.10;;
80313;SDS011;69628;47.516;18.828;2023-10-31T05:16:30;6.90;;;2.13;;
80313;SDS011;69628;47.516;18.828;2023-10-31T05:17:30;5.65;;;3.03;;
80313;SDS011;69628;47.516;18.828;2023-10-31T05:18:31;4.35;;;2.15;;
80313;SDS011;69628;47.516;18.828;2023-10-31T05:19:31;6.30;;;2.33;;
80313;SDS011;69628;47.516;18.828;2023-10-31T05:20:32;3.95;;;2.00;;
80313;SDS011;69628;47.516;18.828;2023-10-31T05:21:32;8.77;;;3.10;;
80313;SDS011;69628;47.516;18.828;2023-10-31T05:22:32;6.85;;;3.13;;
80313;SDS011;69628;47.516;18.828;2023-10-31T05:23:33;7.47;;;2.58;;
80313;SDS011;69628;47.516;18.828;2023-10-31T05:24:33;5.07;;;2.55;;
80313;SDS011;69628;47.516;18.828;2023-10-31T05:25:34;5.82;;;2.30;;
80313;SDS011;69628;47.516;18.828;2023-10-31T05:26:35;9.35;;;2.80;;
80313;SDS011;69628;47.516;18.828;2023-10-31T05:27:35;5.53;;;2.10;;
80313;SDS011;69628;47.516;18.828;2023-10-31T05:28:35;6.13;;;2.50;;
80313;SDS011;69628;47.516;18.828;2023-10-31T05:29:38;3.60;;;2.40;;
80313;SDS011;69628;47.516;18.828;2023-10-31T05:30:38;12.35;;;2.28;;
80313;SDS011;69628;47.516;18.828;2023-10-31T05:31:39;5.68;;;2.30;;
80313;SDS011;69628;47.516;18.828;2023-10-31T05:32:41;3.38;;;2.25;;
80313;SDS011;69628;47.516;18.828;2023-10-31T05:33:41;5.55;;;2.03;;
80313;SDS011;69628;47.516;18.828;2023-10-31T05:34:42;3.22;;;2.10;;
80313;SDS011;69628;47.516;18.828;2023-10-31T05:35:42;5.38;;;2.10;;
80313;SDS011;69628;47.516;18.828;2023-10-31T05:36:42;7.63;;;2.80;;
80313;SDS011;69628;47.516;18.828;2023-10-31T05:37:45;7.90;;;2.15;;
80313;SDS011;69628;47.516;18.828;2023-10-31T05:38:46;5.88;;;2.35;;
80313;SDS011;69628;47.516;18.828;2023-10-31T05:39:47;32.33;;;3.00;;
80313;SDS011;69628;47.516;18.828;2023-10-31T05:40:47;4.75;;;1.98;;
80313;SDS011;69628;47.516;18.828;2023-10-31T05:41:48;5.25;;;2.40;;
80313;SDS011;69628;47.516;18.828;2023-10-31T05:42:48;3.65;;;1.92;;
80313;SDS011;69628;47.516;18.828;2023-10-31T05:43:49;3.60;;;2.00;;
80313;SDS011;69628;47.516;18.828;2023-10-31T05:44:49;3.05;;;1.60;;
80313;SDS011;69628;47.516;18.828;2023-10-31T05:45:50;3.58;;;2.28;;
80313;SDS011;69628;47.516;18.828;2023-10-31T05:46:50;4.28;;;2.40;;
80313;SDS011;69628;47.516;18.828;2023-10-31T05:47:50;4.07;;;2.42;;
80313;SDS011;69628;47.516;18.828;2023-10-31T05:48:51;2.75;;;1.80;;
80313;SDS011;69628;47.516;18.828;2023-10-31T05:49:51;8.18;;;2.67;;
80313;SDS011;69628;47.516;18.828;2023-10-31T05:50:51;4.97;;;1.98;;
80313;SDS011;69628;47.516;18.828;2023-10-31T05:51:52;6.03;;;2.35;;
80313;SDS011;69628;47.516;18.828;2023-10-31T05:52:52;2.53;;;1.75;;
80313;SDS011;69628;47.516;18.828;2023-10-31T05:53:53;4.03;;;2.15;;
80313;SDS011;69628;47.516;18.828;2023-10-31T05:54:53;3.03;;;2.03;;
80313;SDS011;69628;47.516;18.828;2023-10-31T05:55:54;3.70;;;1.70;;
80313;SDS011;69628;47.516;18.828;2023-10-31T05:56:54;3.92;;;2.13;;
80313;SDS011;69628;47.516;18.828;2023-10-31T05:57:54;5.15;;;2.17;;
80313;SDS011;69628;47.516;18.828;2023-10-31T05:58:55;5.97;;;2.38;;
80313;SDS011;69628;47.516;18.828;2023-10-31T05:59:55;3.35;;;2.08;;
80313;SDS011;69628;47.516;18.828;2023-10-31T06:00:55;6.82;;;2.53;;
80313;SDS011;69628;47.516;18.828;2023-10-31T06:01:56;4.03;;;2.25;;